createdAt,value
2023-07-03T00:00:19.932Z,98715.03
2023-07-03T00:02:55.057Z,98707.03
2023-07-03T00:05:23.217Z,98715.47
2023-07-03T00:07:50.999Z,98722.66
2023-07-03T00:10:19.095Z,98724.25
2023-07-03T00:12:46.283Z,98723.88
2023-07-03T00:15:14.761Z,98738.28
2023-07-03T00:17:45.786Z,98732.69
2023-07-03T00:20:16.704Z,98719.88
2023-07-03T00:22:45.445Z,98726.69
2023-07-03T00:25:13.017Z,98721.91
2023-07-03T00:27:40.034Z,98725.09
2023-07-03T00:30:12.112Z,98719.91
2023-07-03T00:32:39.135Z,98719.09
2023-07-03T00:35:08.072Z,98717.91
2023-07-03T00:37:36.059Z,98723.91
2023-07-03T00:40:05.648Z,98722.72
2023-07-03T00:42:32.481Z,98724.72
2023-07-03T00:45:00.201Z,98712.69
2023-07-03T00:47:29.270Z,98717.88
2023-07-03T00:49:56.498Z,98723.88
2023-07-03T00:52:23.629Z,98732.28
2023-07-03T00:54:51.141Z,98723.88
2023-07-03T00:57:18.898Z,98724.69
2023-07-03T00:59:46.528Z,98731.88
2023-07-03T01:02:27.296Z,98729.47
2023-07-03T01:05:19.103Z,98721.88
2023-07-03T01:07:47.284Z,98719.09
2023-07-03T01:10:19.982Z,98730.66
2023-07-03T01:12:59.923Z,98729.88
2023-07-03T01:15:31.518Z,98727.06
2023-07-03T01:18:02.896Z,98727.88
2023-07-03T01:20:35.399Z,98739.84
2023-07-03T01:23:12.571Z,98734.66
2023-07-03T01:25:43.485Z,98741.44
2023-07-03T01:28:13.858Z,98743.44
2023-07-03T01:30:43.463Z,98743.44
2023-07-03T01:33:15.833Z,98739.06
2023-07-03T01:35:43.333Z,98743.06
2023-07-03T01:38:11.246Z,98737.88
2023-07-03T01:40:40.439Z,98752.63
2023-07-03T01:43:07.842Z,98743.44
2023-07-03T01:45:40.723Z,98747.44
2023-07-03T01:48:08.151Z,98752.22
2023-07-03T01:50:37.845Z,98754.22
2023-07-03T01:53:12.220Z,98753.00
2023-07-03T01:55:47.680Z,98755.00
2023-07-03T01:58:24.058Z,98750.22
2023-07-03T02:00:56.437Z,98747.00
2023-07-03T02:03:37.343Z,98754.97
2023-07-03T02:06:15.284Z,98750.19
2023-07-03T02:08:43.689Z,98748.97
2023-07-03T02:11:23.139Z,98750.56
2023-07-03T02:13:54.341Z,98757.38
2023-07-03T02:16:25.702Z,98757.34
2023-07-03T02:18:52.746Z,98756.16
2023-07-03T02:21:19.628Z,98760.94
2023-07-03T02:23:47.056Z,98766.94
2023-07-03T02:26:15.413Z,98757.75
2023-07-03T02:28:43.080Z,98766.16
2023-07-03T02:31:12.323Z,98773.34
2023-07-03T02:33:39.321Z,98776.53
2023-07-03T02:36:07.165Z,98779.72
2023-07-03T02:38:34.689Z,98790.13
2023-07-03T02:41:03.516Z,98796.53
2023-07-03T02:43:33.759Z,98792.50
2023-07-03T02:46:11.043Z,98801.69
2023-07-03T02:48:38.488Z,98793.31
2023-07-03T02:51:08.963Z,98808.50
2023-07-03T02:53:36.191Z,98803.72
2023-07-03T02:56:10.163Z,98806.50
2023-07-03T02:58:41.970Z,98798.91
2023-07-03T03:01:12.596Z,98804.50
2023-07-03T03:03:39.896Z,98804.91
2023-07-03T03:06:08.220Z,98809.28
2023-07-03T03:08:35.538Z,98813.28
2023-07-03T03:11:04.404Z,98800.50
2023-07-03T03:13:32.384Z,98810.91
2023-07-03T03:16:00.327Z,98806.91
2023-07-03T03:18:27.472Z,98822.09
2023-07-03T03:20:54.898Z,98814.94
2023-07-03T03:23:22.174Z,98809.75
2023-07-03T03:25:49.454Z,98816.16
2023-07-03T03:28:17.003Z,98808.16
2023-07-03T03:30:44.498Z,98815.75
2023-07-03T03:33:12.352Z,98818.16
2023-07-03T03:35:39.468Z,98813.38
2023-07-03T03:38:11.219Z,98819.00
2023-07-03T03:40:38.462Z,98816.59
2023-07-03T03:43:09.455Z,98817.84
2023-07-03T03:45:39.517Z,98822.25
2023-07-03T03:48:06.710Z,98818.25
2023-07-03T03:50:33.873Z,98814.25
2023-07-03T03:53:01.154Z,98824.66
2023-07-03T03:55:28.504Z,98828.63
2023-07-03T03:57:55.581Z,98825.41
2023-07-03T04:00:23.085Z,98825.41
2023-07-03T04:02:50.049Z,98835.00
2023-07-03T04:05:17.171Z,98840.19
2023-07-03T04:07:45.317Z,98834.19
2023-07-03T04:10:12.727Z,98836.19
2023-07-03T04:12:39.944Z,98816.22
2023-07-03T04:15:08.798Z,98833.81
2023-07-03T04:17:36.057Z,98840.59
2023-07-03T04:20:07.796Z,98850.59
2023-07-03T04:22:35.341Z,98850.19
2023-07-03T04:25:03.495Z,98848.59
2023-07-03T04:27:30.384Z,98856.59
2023-07-03T04:29:57.643Z,98844.97
2023-07-03T04:32:24.849Z,98849.75
2023-07-03T04:34:51.856Z,98836.56
2023-07-03T04:37:18.804Z,98842.91
2023-07-03T04:39:45.707Z,98848.88
2023-07-03T04:42:14.910Z,98858.06
2023-07-03T04:44:43.904Z,98851.25
2023-07-03T04:47:11.984Z,98856.41
2023-07-03T04:49:38.920Z,98854.78
2023-07-03T04:52:07.703Z,98842.75
2023-07-03T04:54:34.789Z,98867.97
2023-07-03T04:57:02.042Z,98859.53
2023-07-03T04:59:29.380Z,98864.34
2023-07-03T05:01:57.194Z,98858.31
2023-07-03T05:04:25.151Z,98866.66
2023-07-03T05:06:52.537Z,98869.78
2023-07-03T05:09:19.631Z,98875.34
2023-07-03T05:11:49.915Z,98877.72
2023-07-03T05:14:17.610Z,98869.69
2023-07-03T05:16:44.472Z,98874.47
2023-07-03T05:19:11.519Z,98875.66
2023-07-03T05:21:38.573Z,98876.41
2023-07-03T05:24:05.741Z,98871.19
2023-07-03T05:26:32.795Z,98872.34
2023-07-03T05:28:59.876Z,98871.97
2023-07-03T05:31:27.039Z,98880.78
2023-07-03T05:33:53.988Z,98879.53
2023-07-03T05:36:21.026Z,98875.06
2023-07-03T05:38:47.900Z,98875.75
2023-07-03T05:41:16.293Z,98887.78
2023-07-03T05:43:43.300Z,98884.94
2023-07-03T05:46:10.887Z,98882.09
2023-07-03T05:48:37.834Z,98891.59
2023-07-03T05:51:05.019Z,98885.16
2023-07-03T05:53:31.953Z,98877.88
2023-07-03T05:55:59.785Z,98882.56
2023-07-03T05:58:28.193Z,98880.09
2023-07-03T06:00:56.323Z,98892.75
2023-07-03T06:03:26.049Z,98888.22
2023-07-03T06:05:53.962Z,98888.22
2023-07-03T06:08:21.089Z,98895.00
2023-07-03T06:10:48.239Z,98900.50
2023-07-03T06:13:15.559Z,98894.03
2023-07-03T06:15:43.467Z,98897.22
2023-07-03T06:18:10.760Z,98895.41
2023-07-03T06:20:39.028Z,98904.13
2023-07-03T06:23:07.523Z,98905.31
2023-07-03T06:25:35.081Z,98908.88
2023-07-03T06:28:02.201Z,98904.78
2023-07-03T06:30:29.245Z,98908.72
2023-07-03T06:32:56.325Z,98911.72
2023-07-03T06:35:23.321Z,98910.84
2023-07-03T06:37:53.630Z,98919.13
2023-07-03T06:40:20.802Z,98925.44
2023-07-03T06:42:47.855Z,98928.56
2023-07-03T06:45:19.105Z,98926.00
2023-07-03T06:47:46.258Z,98909.56
2023-07-03T06:50:13.738Z,98928.41
2023-07-03T06:52:43.579Z,98926.31
2023-07-03T06:55:10.951Z,98919.81
2023-07-03T06:57:38.130Z,98925.41
2023-07-03T07:00:07.220Z,98929.38
2023-07-03T07:02:34.768Z,98918.47
2023-07-03T07:05:03.389Z,98930.78
2023-07-03T07:07:31.149Z,98938.25
2023-07-03T07:09:58.147Z,98930.91
2023-07-03T07:12:25.379Z,98931.53
2023-07-03T07:14:52.230Z,98936.69
2023-07-03T07:17:19.227Z,98944.28
2023-07-03T07:19:46.629Z,98932.38
2023-07-03T07:22:13.779Z,98937.09
2023-07-03T07:24:40.781Z,98936.09
2023-07-03T07:27:08.998Z,98940.88
2023-07-03T07:29:36.064Z,98937.00
2023-07-03T07:32:03.090Z,98934.56
2023-07-03T07:34:30.130Z,98944.25
2023-07-03T07:36:57.218Z,98933.97
2023-07-03T07:39:26.191Z,98933.31
2023-07-03T07:41:53.356Z,98942.44
2023-07-03T07:44:20.534Z,98932.63
2023-07-03T07:46:47.783Z,98944.56
2023-07-03T07:49:14.912Z,98948.19
2023-07-03T07:51:42.184Z,98937.97
2023-07-03T07:54:09.256Z,98946.84
2023-07-03T07:56:36.329Z,98945.97
2023-07-03T07:59:03.573Z,98944.75
2023-07-03T08:01:31.044Z,98949.34
2023-07-03T08:03:58.250Z,98955.78
2023-07-03T08:06:25.592Z,98961.09
2023-07-03T08:08:52.627Z,98961.34
2023-07-03T08:11:19.886Z,98961.56
2023-07-03T08:13:47.025Z,98961.72
2023-07-03T08:16:16.687Z,98961.13
2023-07-03T08:18:46.267Z,98965.03
2023-07-03T08:21:14.864Z,98954.16
2023-07-03T08:23:42.046Z,98955.50
2023-07-03T08:26:18.601Z,98959.56
2023-07-03T08:28:46.284Z,98952.97
2023-07-03T08:31:13.356Z,98956.50
2023-07-03T08:33:40.536Z,98967.97
2023-07-03T08:38:38.168Z,98964.44
2023-07-03T08:41:05.470Z,98963.91
2023-07-03T08:43:39.150Z,98969.66
2023-07-03T08:46:12.661Z,98964.97
2023-07-03T08:48:41.782Z,98966.38
2023-07-03T08:51:14.024Z,98963.72
2023-07-03T08:53:44.574Z,98961.00
2023-07-03T08:56:15.492Z,98956.84
2023-07-03T08:58:43.149Z,98962.31
2023-07-03T09:01:29.802Z,98957.34
2023-07-03T09:04:34.252Z,98961.97
2023-07-03T09:07:06.774Z,98957.91
2023-07-03T09:10:00.416Z,98959.69
2023-07-03T09:12:41.562Z,98955.75
2023-07-03T09:15:19.980Z,98953.84
2023-07-03T09:17:49.196Z,98954.28
2023-07-03T09:20:17.650Z,98960.03
2023-07-03T09:23:06.183Z,98953.66
2023-07-03T09:25:47.169Z,98961.44
2023-07-03T09:28:14.208Z,98961.28
2023-07-03T09:30:41.407Z,98962.50
2023-07-03T09:33:08.460Z,98960.75
2023-07-03T09:35:37.770Z,98965.50
2023-07-03T09:38:12.612Z,98964.97
2023-07-03T09:40:43.431Z,98961.63
2023-07-03T09:43:20.233Z,98971.34
2023-07-03T09:45:48.391Z,98950.53
2023-07-03T09:48:27.393Z,98953.44
2023-07-03T09:51:05.647Z,98958.38
2023-07-03T09:53:38.834Z,98952.44
2023-07-03T09:56:17.619Z,98947.47
2023-07-03T09:58:49.656Z,98938.78
2023-07-03T10:07:05.541Z,98946.13
2023-07-03T10:12:22.549Z,98939.94
2023-07-03T10:15:07.988Z,98946.38
2023-07-03T10:17:59.488Z,98941.72
2023-07-03T10:20:40.819Z,98936.03
2023-07-03T10:23:10.965Z,98936.84
2023-07-03T10:25:43.279Z,98944.78
2023-07-03T10:28:16.918Z,98939.75
2023-07-03T10:30:44.664Z,98942.06
2023-07-03T10:33:16.303Z,98934.81
2023-07-03T10:35:44.415Z,98940.06
2023-07-03T10:38:35.120Z,98938.53
2023-07-03T10:41:16.039Z,98936.72
2023-07-03T10:43:56.128Z,98939.78
2023-07-03T10:46:30.738Z,98937.38
2023-07-03T10:49:04.152Z,98946.91
2023-07-03T10:51:38.609Z,98940.44
2023-07-03T10:54:15.546Z,98934.88
2023-07-03T10:56:47.093Z,98930.56
2023-07-03T10:59:14.136Z,98934.25
2023-07-03T11:02:14.078Z,98931.19
2023-07-03T11:04:53.271Z,98935.16
2023-07-03T11:07:38.733Z,98937.44
2023-07-03T11:10:27.453Z,98933.50
2023-07-03T11:13:03.375Z,98930.19
2023-07-03T11:15:59.187Z,98934.38
2023-07-03T11:24:10.518Z,98929.38
2023-07-03T11:29:13.297Z,98928.97
2023-07-03T11:31:44.520Z,98929.97
2023-07-03T11:37:02.720Z,98932.09
2023-07-03T11:44:42.627Z,98922.63
2023-07-03T11:47:29.008Z,98927.97
2023-07-03T11:50:01.374Z,98923.09
2023-07-03T11:52:31.264Z,98921.88
2023-07-03T11:55:06.039Z,98916.00
2023-07-03T11:57:37.013Z,98919.94
2023-07-03T12:00:25.938Z,98915.75
2023-07-03T12:03:03.538Z,98909.84
2023-07-03T12:05:49.172Z,98915.09
2023-07-03T12:08:19.375Z,98911.72
2023-07-03T12:10:56.956Z,98917.94
2023-07-03T12:13:43.233Z,98907.91
2023-07-03T12:16:19.076Z,98910.94
2023-07-03T12:18:56.215Z,98896.47
2023-07-03T12:21:23.297Z,98899.53
2023-07-03T12:23:50.899Z,98897.72
2023-07-03T12:26:18.377Z,98898.38
2023-07-03T12:28:47.420Z,98904.78
2023-07-03T12:31:21.665Z,98899.53
2023-07-03T12:34:01.320Z,98896.16
2023-07-03T12:36:37.247Z,98892.38
2023-07-03T12:39:14.626Z,98885.00
2023-07-03T12:41:41.804Z,98902.22
2023-07-03T12:44:12.052Z,98891.66
2023-07-03T12:46:46.540Z,98887.34
2023-07-03T12:49:16.745Z,98884.13
2023-07-03T12:51:49.860Z,98890.31
2023-07-03T12:54:17.042Z,98887.28
2023-07-03T12:56:45.414Z,98889.94
2023-07-03T12:59:17.454Z,98892.78
2023-07-03T13:01:48.849Z,98893.22
2023-07-03T13:04:17.141Z,98890.13
2023-07-03T13:06:45.177Z,98889.66
2023-07-03T13:09:14.142Z,98887.00
2023-07-03T13:11:47.092Z,98892.13
2023-07-03T13:14:18.474Z,98893.47
2023-07-03T13:16:51.699Z,98889.47
2023-07-03T13:19:32.441Z,98886.44
2023-07-03T13:22:00.961Z,98881.22
2023-07-03T13:24:29.633Z,98893.81
2023-07-03T13:26:58.718Z,98884.38
2023-07-03T13:29:31.590Z,98887.28
2023-07-03T13:32:18.702Z,98886.44
2023-07-03T13:34:53.479Z,98888.09
2023-07-03T13:37:26.113Z,98887.25
2023-07-03T13:40:01.098Z,98895.63
2023-07-03T13:42:29.760Z,98879.84
2023-07-03T13:44:57.060Z,98881.69
2023-07-03T13:47:26.548Z,98881.13
2023-07-03T13:49:56.228Z,98870.13
2023-07-03T13:52:29.290Z,98884.63
2023-07-03T13:54:56.389Z,98880.72
2023-07-03T13:57:23.472Z,98870.63
2023-07-03T13:59:50.593Z,98881.59
2023-07-03T14:02:17.878Z,98868.91
2023-07-03T14:04:44.937Z,98882.16
2023-07-03T14:07:12.246Z,98874.09
2023-07-03T14:09:39.337Z,98875.81
2023-07-03T14:12:06.881Z,98876.38
2023-07-03T14:14:34.025Z,98864.97
2023-07-03T14:17:01.245Z,98857.22
2023-07-03T14:19:28.351Z,98865.59
2023-07-03T14:21:55.456Z,98854.25
2023-07-03T14:24:22.309Z,98854.56
2023-07-03T14:26:49.258Z,98863.06
2023-07-03T14:29:16.273Z,98866.94
2023-07-03T14:31:43.375Z,98865.09
2023-07-03T14:34:10.800Z,98870.69
2023-07-03T14:36:37.974Z,98875.81
2023-07-03T14:39:04.895Z,98862.22
2023-07-03T14:41:31.753Z,98869.13
2023-07-03T14:43:58.838Z,98866.19
2023-07-03T14:46:26.120Z,98861.94
2023-07-03T14:48:53.262Z,98860.84
2023-07-03T14:51:20.428Z,98854.72
2023-07-03T14:53:47.867Z,98862.38
2023-07-03T14:56:15.109Z,98865.97
2023-07-03T14:58:42.696Z,98865.19
2023-07-03T15:01:10.253Z,98861.00
2023-07-03T15:03:37.345Z,98861.31
2023-07-03T15:06:08.460Z,98860.91
2023-07-03T15:08:35.558Z,98857.31
2023-07-03T15:11:02.507Z,98860.66
2023-07-03T15:13:29.834Z,98846.47
2023-07-03T15:15:58.029Z,98856.53
2023-07-03T15:18:25.297Z,98849.81
2023-07-03T15:20:52.501Z,98846.06
2023-07-03T15:23:19.773Z,98846.44
2023-07-03T15:25:46.581Z,98844.38
2023-07-03T15:28:13.735Z,98842.47
2023-07-03T15:30:41.349Z,98847.28
2023-07-03T15:33:09.133Z,98853.53
2023-07-03T15:35:36.599Z,98863.06
2023-07-03T15:38:04.051Z,98863.94
2023-07-03T15:40:30.984Z,98861.72
2023-07-03T15:42:58.265Z,98860.69
2023-07-03T15:45:25.273Z,98871.69
2023-07-03T15:47:52.762Z,98873.72
2023-07-03T15:50:19.839Z,98876.66
2023-07-03T15:52:46.899Z,98872.94
2023-07-03T15:55:14.795Z,98884.47
2023-07-03T15:57:42.149Z,98883.06
2023-07-03T16:00:09.947Z,98877.38
2023-07-03T16:02:38.509Z,98880.72
2023-07-03T16:05:05.653Z,98876.69
2023-07-03T16:07:32.848Z,98880.47
2023-07-03T16:09:59.769Z,98862.28
2023-07-03T16:12:26.940Z,98878.16
2023-07-03T16:14:53.812Z,98891.97
2023-07-03T16:17:20.785Z,98876.88
2023-07-03T16:20:10.147Z,98893.13
2023-07-03T16:22:38.400Z,98887.63
2023-07-03T16:25:06.430Z,98892.94
2023-07-03T16:27:33.610Z,98901.06
2023-07-03T16:30:00.815Z,98895.19
2023-07-03T16:32:30.698Z,98900.47
2023-07-03T16:34:57.731Z,98894.44
2023-07-03T16:37:25.140Z,98894.47
2023-07-03T16:39:51.965Z,98897.50
2023-07-03T16:42:18.962Z,98897.22
2023-07-03T16:44:46.017Z,98904.22
2023-07-03T16:47:12.914Z,98898.22
2023-07-03T16:49:40.219Z,98894.00
2023-07-03T16:52:07.458Z,98899.44
2023-07-03T16:54:34.939Z,98907.44
2023-07-03T16:57:01.777Z,98904.03
2023-07-03T16:59:30.186Z,98905.06
2023-07-03T17:01:57.519Z,98909.34
2023-07-03T17:04:25.885Z,98898.78
2023-07-03T17:06:53.081Z,98906.75
2023-07-03T17:09:20.339Z,98912.94
2023-07-03T17:11:47.858Z,98913.34
2023-07-03T17:14:15.156Z,98914.16
2023-07-03T17:16:42.605Z,98923.97
2023-07-03T17:19:09.917Z,98925.13
2023-07-03T17:21:38.364Z,98917.84
2023-07-03T17:24:06.216Z,98924.34
2023-07-03T17:26:34.117Z,98925.00
2023-07-03T17:29:01.702Z,98935.13
2023-07-03T17:31:28.890Z,98932.41
2023-07-03T17:33:56.960Z,98925.22
2023-07-03T17:36:25.014Z,98930.84
2023-07-03T17:38:53.234Z,98938.97
2023-07-03T17:41:20.748Z,98941.44
2023-07-03T17:43:48.715Z,98941.72
2023-07-03T17:46:17.254Z,98940.53
2023-07-03T17:48:45.018Z,98947.97
2023-07-03T17:51:12.598Z,98944.63
2023-07-03T17:53:41.324Z,98945.09
2023-07-03T17:56:08.331Z,98954.72
2023-07-03T17:58:36.355Z,98953.31
2023-07-03T18:01:04.883Z,98955.78
2023-07-03T18:03:33.954Z,98961.25
2023-07-03T18:06:01.416Z,98953.03
2023-07-03T18:08:32.896Z,98954.00
2023-07-03T18:11:00.681Z,98964.41
2023-07-03T18:13:29.000Z,98968.94
2023-07-03T18:15:56.576Z,98966.28
2023-07-03T18:18:24.646Z,98974.16
2023-07-03T18:20:51.643Z,98970.31
2023-07-03T18:23:18.612Z,98970.03
2023-07-03T18:25:48.609Z,98981.78
2023-07-03T18:28:15.857Z,98981.19
2023-07-03T18:30:43.000Z,98989.38
2023-07-03T18:33:09.965Z,98986.38
2023-07-03T18:35:37.447Z,98993.75
2023-07-03T18:38:05.291Z,98986.16
2023-07-03T18:40:32.705Z,98993.88
2023-07-03T18:43:00.014Z,98995.72
2023-07-03T18:45:26.979Z,98989.78
2023-07-03T18:47:54.159Z,98993.16
2023-07-03T18:50:21.598Z,99000.88
2023-07-03T18:52:48.843Z,99001.88
2023-07-03T18:55:16.226Z,99001.13
2023-07-03T18:57:45.824Z,99006.09
2023-07-03T19:00:15.232Z,99007.84
2023-07-03T19:02:42.639Z,99009.66
2023-07-03T19:05:10.034Z,99008.13
2023-07-03T19:07:37.057Z,99000.88
2023-07-03T19:10:17.544Z,99005.94
2023-07-03T19:12:45.780Z,99018.78
2023-07-03T19:15:13.058Z,99017.31
2023-07-03T19:17:40.323Z,99024.38
2023-07-03T19:20:08.036Z,99027.09
2023-07-03T19:22:38.135Z,99023.91
2023-07-03T19:25:06.692Z,99012.31
2023-07-03T19:27:33.880Z,99026.44
2023-07-03T19:30:00.909Z,99027.25
2023-07-03T19:32:28.664Z,99020.44
2023-07-03T19:34:55.855Z,99017.25
2023-07-03T19:37:23.252Z,99010.50
2023-07-03T19:39:50.780Z,99026.47
2023-07-03T19:42:17.878Z,99022.09
2023-07-03T19:44:46.024Z,99024.44
2023-07-03T19:47:16.387Z,99026.09
2023-07-03T19:49:43.415Z,99026.44
2023-07-03T19:52:11.976Z,99030.81
2023-07-03T19:54:39.352Z,99041.28
2023-07-03T19:57:06.538Z,99042.50
2023-07-03T19:59:33.950Z,99040.84
2023-07-03T20:02:01.492Z,99039.25
2023-07-03T20:04:29.230Z,99052.19
2023-07-03T20:06:56.301Z,99055.84
2023-07-03T20:09:23.240Z,99045.84
2023-07-03T20:11:50.934Z,99033.06
2023-07-03T20:14:18.205Z,99051.94
2023-07-03T20:16:45.269Z,99049.94
2023-07-03T20:19:12.810Z,99056.00
2023-07-03T20:21:40.177Z,99056.41
2023-07-03T20:24:07.199Z,99053.19
2023-07-03T20:26:34.587Z,99064.88
2023-07-03T20:29:01.880Z,99066.09
2023-07-03T20:31:29.805Z,99064.06
2023-07-03T20:33:56.865Z,99054.91
2023-07-03T20:36:24.533Z,99065.41
2023-07-03T20:38:51.380Z,99062.69
2023-07-03T20:41:18.427Z,99048.75
2023-07-03T20:43:45.819Z,99062.41
2023-07-03T20:46:16.020Z,99052.63
2023-07-03T20:48:45.908Z,99052.31
2023-07-03T20:51:16.211Z,99065.53
2023-07-03T20:53:53.829Z,99063.91
2023-07-03T20:56:23.679Z,99063.59
2023-07-03T20:58:58.911Z,99069.69
2023-07-03T21:01:32.778Z,99068.94
2023-07-03T21:04:01.567Z,99085.81
2023-07-03T21:06:32.367Z,99070.47
2023-07-03T21:09:00.710Z,99079.81
2023-07-03T21:11:30.396Z,99071.03
2023-07-03T21:14:00.442Z,99074.63
2023-07-03T21:16:27.541Z,99077.88
2023-07-03T21:18:54.624Z,99081.16
2023-07-03T21:21:31.513Z,99078.88
2023-07-03T21:24:00.368Z,99076.47
2023-07-03T21:26:28.129Z,99078.88
2023-07-03T21:28:55.637Z,99075.72
2023-07-03T21:31:31.565Z,99085.81
2023-07-03T21:33:59.075Z,99087.88
2023-07-03T21:36:28.542Z,99089.53
2023-07-03T21:39:00.544Z,99083.94
2023-07-03T21:41:30.991Z,99087.13
2023-07-03T21:44:00.500Z,99091.19
2023-07-03T21:46:29.666Z,99079.25
2023-07-03T21:48:57.188Z,99077.22
2023-07-03T21:51:27.301Z,99087.28
2023-07-03T21:53:55.201Z,99097.31
2023-07-03T21:56:25.295Z,99104.56
2023-07-03T21:58:54.101Z,99096.91
2023-07-03T22:01:30.315Z,99100.94
2023-07-03T22:03:59.051Z,99087.34
2023-07-03T22:06:27.293Z,99092.97
2023-07-03T22:08:55.122Z,99084.59
2023-07-03T22:11:23.521Z,99094.25
2023-07-03T22:13:51.266Z,99092.34
2023-07-03T22:16:20.227Z,99083.09
2023-07-03T22:18:48.574Z,99085.88
2023-07-03T22:21:19.723Z,99081.13
2023-07-03T22:23:51.616Z,99088.00
2023-07-03T22:26:19.756Z,99078.38
2023-07-03T22:28:50.267Z,99077.13
2023-07-03T22:31:17.857Z,99072.34
2023-07-03T22:33:44.988Z,99081.53
2023-07-03T22:36:13.090Z,99088.75
2023-07-03T22:38:40.858Z,99089.97
2023-07-03T22:41:11.555Z,99088.34
2023-07-03T22:43:40.550Z,99085.13
2023-07-03T22:46:09.386Z,99095.16
2023-07-03T22:48:43.817Z,99085.16
2023-07-03T22:51:11.722Z,99085.91
2023-07-03T22:53:38.963Z,99091.53
2023-07-03T22:56:06.940Z,99095.53
2023-07-03T22:58:34.479Z,99091.91
2023-07-03T23:01:08.180Z,99090.78
2023-07-03T23:03:35.325Z,99093.16
2023-07-03T23:06:04.675Z,99100.41
2023-07-03T23:08:34.137Z,99094.41
2023-07-03T23:11:03.227Z,99109.28
2023-07-03T23:13:31.450Z,99102.09
2023-07-03T23:16:01.556Z,99098.56
2023-07-03T23:18:32.466Z,99102.16
2023-07-03T23:21:15.193Z,99102.22
2023-07-03T23:23:42.913Z,99113.06
2023-07-03T23:26:12.653Z,99114.25
2023-07-03T23:28:43.092Z,99118.28
2023-07-03T23:31:13.637Z,99108.69
2023-07-03T23:33:42.655Z,99110.31
2023-07-03T23:36:11.831Z,99108.69
2023-07-03T23:38:40.765Z,99108.25
2023-07-03T23:41:10.593Z,99107.09
2023-07-03T23:43:38.586Z,99110.34
2023-07-03T23:46:08.923Z,99110.75
2023-07-03T23:48:38.232Z,99110.41
2023-07-03T23:51:08.994Z,99104.81
2023-07-03T23:53:41.071Z,99104.00
2023-07-03T23:56:14.016Z,99105.59
2023-07-03T23:58:43.080Z,99107.59
